createdAt,value
2019-03-04T00:00:39.076Z,830.06
2019-03-04T00:01:39.422Z,829.97
2019-03-04T00:02:39.090Z,830.03
2019-03-04T00:03:39.072Z,830.01
2019-03-04T00:04:39.034Z,830.02
2019-03-04T00:05:39.020Z,829.98
2019-03-04T00:06:38.991Z,829.99
2019-03-04T00:07:39.523Z,829.99
2019-03-04T00:08:39.044Z,829.98
2019-03-04T00:09:41.414Z,829.98
2019-03-04T00:10:38.990Z,830.04
2019-03-04T00:11:39.012Z,829.97
2019-03-04T00:12:38.932Z,829.96
2019-03-04T00:13:38.980Z,829.99
2019-03-04T00:14:39.061Z,830.00
2019-03-04T00:15:39.151Z,829.99
2019-03-04T00:16:38.981Z,829.98
2019-03-04T00:17:38.869Z,829.96
2019-03-04T00:18:39.324Z,829.93
2019-03-04T00:19:39.142Z,829.98
2019-03-04T00:20:38.852Z,829.96
2019-03-04T00:21:38.821Z,829.91
2019-03-04T00:22:38.821Z,829.96
2019-03-04T00:23:39.064Z,829.96
2019-03-04T00:24:38.813Z,829.96
2019-03-04T00:25:38.859Z,829.91
2019-03-04T00:26:38.983Z,829.97
2019-03-04T00:27:38.852Z,830.00
2019-03-04T00:28:39.071Z,829.95
2019-03-04T00:29:39.103Z,830.01
2019-03-04T00:30:38.829Z,830.11
2019-03-04T00:31:38.924Z,830.02
2019-03-04T00:32:38.862Z,830.01
2019-03-04T00:33:38.972Z,830.04
2019-03-04T00:34:38.704Z,830.03
2019-03-04T00:35:38.804Z,830.07
2019-03-04T00:36:38.705Z,830.08
2019-03-04T00:37:38.782Z,830.02
2019-03-04T00:38:38.641Z,830.02
2019-03-04T00:39:38.639Z,829.99
2019-03-04T00:40:38.696Z,830.00
2019-03-04T00:41:38.631Z,830.12
2019-03-04T00:42:38.761Z,830.11
2019-03-04T00:43:39.823Z,830.12
2019-03-04T00:44:38.672Z,830.07
2019-03-04T00:45:38.672Z,830.05
2019-03-04T00:46:38.611Z,830.01
2019-03-04T00:47:42.972Z,830.03
2019-03-04T00:48:38.574Z,830.04
2019-03-04T00:49:38.863Z,830.07
2019-03-04T00:50:38.614Z,830.08
2019-03-04T00:51:38.761Z,830.05
2019-03-04T00:52:38.529Z,830.03
2019-03-04T00:53:38.479Z,830.07
2019-03-04T00:54:38.494Z,830.06
2019-03-04T00:55:39.182Z,830.05
2019-03-04T00:56:38.732Z,830.05
2019-03-04T00:57:38.471Z,830.03
2019-03-04T00:58:38.599Z,830.04
2019-03-04T00:59:38.691Z,830.04
2019-03-04T01:00:38.401Z,829.95
2019-03-04T01:01:38.604Z,830.02
2019-03-04T01:02:38.443Z,830.00
2019-03-04T01:03:38.446Z,829.92
2019-03-04T01:04:38.394Z,829.91
2019-03-04T01:05:38.384Z,829.93
2019-03-04T01:06:38.359Z,829.95
2019-03-04T01:07:38.411Z,830.02
2019-03-04T01:08:38.320Z,829.93
2019-03-04T01:09:38.340Z,829.98
2019-03-04T01:10:38.371Z,829.91
2019-03-04T01:11:38.574Z,829.93
2019-03-04T01:12:38.503Z,829.87
2019-03-04T01:13:38.331Z,829.90
2019-03-04T01:14:38.353Z,829.91
2019-03-04T01:15:38.248Z,829.89
2019-03-04T01:16:39.382Z,829.91
2019-03-04T01:17:38.318Z,829.88
2019-03-04T01:18:38.269Z,829.82
2019-03-04T01:19:38.259Z,829.83
2019-03-04T01:20:38.270Z,829.81
2019-03-04T01:21:38.391Z,829.85
2019-03-04T01:22:38.281Z,829.79
2019-03-04T01:23:38.186Z,829.77
2019-03-04T01:24:38.142Z,829.67
2019-03-04T01:25:38.264Z,829.71
2019-03-04T01:26:38.159Z,829.76
2019-03-04T01:27:38.210Z,829.71
2019-03-04T01:28:39.333Z,829.75
2019-03-04T01:29:39.421Z,829.72
2019-03-04T01:30:38.125Z,829.70
2019-03-04T01:31:38.191Z,829.72
2019-03-04T01:32:38.750Z,829.73
2019-03-04T01:33:38.222Z,829.69
2019-03-04T01:34:38.211Z,829.65
2019-03-04T01:35:38.104Z,829.68
2019-03-04T01:36:38.443Z,829.69
2019-03-04T01:37:38.139Z,829.66
2019-03-04T01:38:38.014Z,829.70
2019-03-04T01:39:38.072Z,829.69
2019-03-04T01:40:37.961Z,829.59
2019-03-04T01:41:38.031Z,829.64
2019-03-04T01:42:37.949Z,829.65
2019-03-04T01:43:38.010Z,829.71
2019-03-04T01:44:37.941Z,829.70
2019-03-04T01:45:37.908Z,829.71
2019-03-04T01:46:37.942Z,829.73
2019-03-04T01:47:37.947Z,829.68
2019-03-04T01:48:37.882Z,829.64
2019-03-04T01:49:37.941Z,829.61
2019-03-04T01:50:37.912Z,829.61
2019-03-04T01:51:37.841Z,829.65
2019-03-04T01:52:38.106Z,829.60
2019-03-04T01:53:37.820Z,829.52
2019-03-04T01:54:37.809Z,829.46
2019-03-04T01:55:37.921Z,829.48
2019-03-04T01:56:37.788Z,829.53
2019-03-04T01:57:37.779Z,829.50
2019-03-04T01:58:37.770Z,829.44
2019-03-04T01:59:38.071Z,829.47
2019-03-04T02:00:37.771Z,829.43
2019-03-04T02:01:37.801Z,829.44
2019-03-04T02:02:38.013Z,829.37
2019-03-04T02:03:37.710Z,829.39
2019-03-04T02:04:37.720Z,829.27
2019-03-04T02:05:37.731Z,829.22
2019-03-04T02:06:37.724Z,829.18
2019-03-04T02:07:37.792Z,829.22
2019-03-04T02:08:37.792Z,829.18
2019-03-04T02:09:37.643Z,829.14
2019-03-04T02:10:37.671Z,829.15
2019-03-04T02:11:37.630Z,829.13
2019-03-04T02:12:37.611Z,829.13
2019-03-04T02:13:37.731Z,829.08
2019-03-04T02:14:37.603Z,829.06
2019-03-04T02:15:37.593Z,829.04
2019-03-04T02:16:37.581Z,829.03
2019-03-04T02:17:37.592Z,829.00
2019-03-04T02:18:37.552Z,828.98
2019-03-04T02:19:37.630Z,828.97
2019-03-04T02:20:37.610Z,828.95
2019-03-04T02:21:37.521Z,829.00
2019-03-04T02:22:37.541Z,828.96
2019-03-04T02:23:37.498Z,828.87
2019-03-04T02:24:37.651Z,828.85
2019-03-04T02:25:37.561Z,828.81
2019-03-04T02:26:37.462Z,828.84
2019-03-04T02:27:37.452Z,828.77
2019-03-04T02:28:37.453Z,828.78
2019-03-04T02:29:37.460Z,828.73
2019-03-04T02:30:37.453Z,828.71
2019-03-04T02:31:37.460Z,828.68
2019-03-04T02:32:37.422Z,828.64
2019-03-04T02:33:37.381Z,828.61
2019-03-04T02:34:37.421Z,828.63
2019-03-04T02:35:37.367Z,828.67
2019-03-04T02:36:37.387Z,828.68
2019-03-04T02:37:37.402Z,828.66
2019-03-04T02:38:37.331Z,828.58
2019-03-04T02:39:37.319Z,828.55
2019-03-04T02:40:37.481Z,828.45
2019-03-04T02:41:37.303Z,828.42
2019-03-04T02:42:37.335Z,828.44
2019-03-04T02:43:37.366Z,828.44
2019-03-04T02:44:37.275Z,828.37
2019-03-04T02:45:37.372Z,828.30
2019-03-04T02:46:37.243Z,828.22
2019-03-04T02:47:37.261Z,828.29
2019-03-04T02:48:37.311Z,828.30
2019-03-04T02:49:37.666Z,828.31
2019-03-04T02:50:37.263Z,828.29
2019-03-04T02:51:37.222Z,828.29
2019-03-04T02:52:37.193Z,828.26
2019-03-04T02:53:37.231Z,828.20
2019-03-04T02:54:37.152Z,828.21
2019-03-04T02:55:37.281Z,828.14
2019-03-04T02:56:37.248Z,828.11
2019-03-04T02:57:37.305Z,828.15
2019-03-04T02:58:37.162Z,828.02
2019-03-04T02:59:37.392Z,828.01
2019-03-04T03:00:37.131Z,827.99
2019-03-04T03:01:37.163Z,827.91
2019-03-04T03:02:37.241Z,827.89
2019-03-04T03:03:37.119Z,827.89
2019-03-04T03:04:37.061Z,827.82
2019-03-04T03:05:37.172Z,827.80
2019-03-04T03:06:37.096Z,827.77
2019-03-04T03:07:37.080Z,827.76
2019-03-04T03:08:37.093Z,827.68
2019-03-04T03:09:37.241Z,827.70
2019-03-04T03:10:37.004Z,827.70
2019-03-04T03:11:36.961Z,827.73
2019-03-04T03:12:36.952Z,827.69
2019-03-04T03:13:37.022Z,827.62
2019-03-04T03:14:36.968Z,827.62
2019-03-04T03:15:36.956Z,827.61
2019-03-04T03:16:36.960Z,827.64
2019-03-04T03:17:36.899Z,827.59
2019-03-04T03:18:36.892Z,827.59
2019-03-04T03:19:37.017Z,827.62
2019-03-04T03:20:36.901Z,827.59
2019-03-04T03:21:36.942Z,827.56
2019-03-04T03:22:36.904Z,827.49
2019-03-04T03:23:37.163Z,827.51
2019-03-04T03:24:36.904Z,827.52
2019-03-04T03:25:36.991Z,827.47
2019-03-04T03:26:37.153Z,827.50
2019-03-04T03:27:37.010Z,827.46
2019-03-04T03:28:36.914Z,827.44
2019-03-04T03:29:36.812Z,827.51
2019-03-04T03:30:36.785Z,827.45
2019-03-04T03:31:36.841Z,827.47
2019-03-04T03:32:36.852Z,827.54
2019-03-04T03:33:37.249Z,827.50
2019-03-04T03:34:36.770Z,827.52
2019-03-04T03:35:36.721Z,827.55
2019-03-04T03:36:36.704Z,827.60
2019-03-04T03:37:37.024Z,827.51
2019-03-04T03:38:36.744Z,827.58
2019-03-04T03:39:36.710Z,827.62
2019-03-04T03:40:36.744Z,827.58
2019-03-04T03:41:37.343Z,827.62
2019-03-04T03:42:37.075Z,827.59
2019-03-04T03:43:36.715Z,827.66
2019-03-04T03:44:36.724Z,827.61
2019-03-04T03:45:36.591Z,827.66
2019-03-04T03:46:36.591Z,827.66
2019-03-04T03:47:36.573Z,827.67
2019-03-04T03:48:36.560Z,827.64
2019-03-04T03:49:36.744Z,827.62
2019-03-04T03:50:36.557Z,827.61
2019-03-04T03:51:37.035Z,827.62
2019-03-04T03:52:36.834Z,827.67
2019-03-04T03:53:36.754Z,827.69
2019-03-04T03:54:36.501Z,827.70
2019-03-04T03:55:36.579Z,827.78
2019-03-04T03:56:36.635Z,827.68
2019-03-04T03:57:36.473Z,827.65
2019-03-04T03:58:36.714Z,827.57
2019-03-04T03:59:36.484Z,827.52
2019-03-04T04:00:36.512Z,827.56
2019-03-04T04:01:36.531Z,827.48
2019-03-04T04:02:36.837Z,827.50
2019-03-04T04:03:36.414Z,827.45
2019-03-04T04:04:36.422Z,827.34
2019-03-04T04:05:36.594Z,827.31
2019-03-04T04:06:36.370Z,827.29
2019-03-04T04:07:36.697Z,827.35
2019-03-04T04:08:36.345Z,827.38
2019-03-04T04:09:36.425Z,827.41
2019-03-04T04:10:36.320Z,827.33
2019-03-04T04:11:36.617Z,827.32
2019-03-04T04:12:36.443Z,827.34
2019-03-04T04:13:36.401Z,827.35
2019-03-04T04:14:36.303Z,827.34
2019-03-04T04:15:36.340Z,827.33
2019-03-04T04:16:36.260Z,827.27
2019-03-04T04:17:36.242Z,827.25
2019-03-04T04:18:36.444Z,827.26
2019-03-04T04:19:36.507Z,827.22
2019-03-04T04:20:36.222Z,827.26
2019-03-04T04:21:38.245Z,827.14
2019-03-04T04:22:36.189Z,827.14
2019-03-04T04:23:36.172Z,827.19
2019-03-04T04:24:36.184Z,827.13
2019-03-04T04:25:36.553Z,827.06
2019-03-04T04:26:36.161Z,827.05
2019-03-04T04:27:36.141Z,827.06
2019-03-04T04:28:36.132Z,827.00
2019-03-04T04:29:36.296Z,827.06
2019-03-04T04:30:36.223Z,826.98
2019-03-04T04:31:37.604Z,826.99
2019-03-04T04:32:36.141Z,826.99
2019-03-04T04:33:36.151Z,826.98
2019-03-04T04:34:40.102Z,827.01
2019-03-04T04:35:36.094Z,826.88
2019-03-04T04:36:36.102Z,826.89
2019-03-04T04:37:36.292Z,826.87
2019-03-04T04:38:36.764Z,826.88
2019-03-04T04:39:37.234Z,826.86
2019-03-04T04:40:36.215Z,826.79
2019-03-04T04:41:40.924Z,826.75
2019-03-04T04:42:36.130Z,826.75
2019-03-04T04:43:36.023Z,826.78
2019-03-04T04:44:36.103Z,826.79
2019-03-04T04:45:36.061Z,826.73
2019-03-04T04:46:38.744Z,826.70
2019-03-04T04:47:35.952Z,826.75
2019-03-04T04:48:36.324Z,826.69
2019-03-04T04:49:36.172Z,826.71
2019-03-04T04:50:35.899Z,826.70
2019-03-04T04:51:35.892Z,826.71
2019-03-04T04:52:35.881Z,826.73
2019-03-04T04:53:35.842Z,826.72
2019-03-04T04:54:35.894Z,826.63
2019-03-04T04:55:36.107Z,826.59
2019-03-04T04:56:35.944Z,826.52
2019-03-04T04:57:35.864Z,826.51
2019-03-04T04:58:36.102Z,826.42
2019-03-04T04:59:35.851Z,826.41
2019-03-04T05:00:35.774Z,826.30
2019-03-04T05:01:37.871Z,826.34
2019-03-04T05:02:35.762Z,826.37
2019-03-04T05:03:35.740Z,826.31
2019-03-04T05:04:36.101Z,826.32
2019-03-04T05:05:35.844Z,826.31
2019-03-04T05:06:35.743Z,826.32
2019-03-04T05:07:36.013Z,826.30
2019-03-04T05:08:35.734Z,826.32
2019-03-04T05:09:35.671Z,826.31
2019-03-04T05:10:37.694Z,826.23
2019-03-04T05:11:35.785Z,826.20
2019-03-04T05:12:35.750Z,826.14
2019-03-04T05:13:35.724Z,826.19
2019-03-04T05:14:35.675Z,826.18
2019-03-04T05:15:35.601Z,826.20
2019-03-04T05:16:35.592Z,826.14
2019-03-04T05:17:35.593Z,826.06
2019-03-04T05:18:35.583Z,826.09
2019-03-04T05:19:36.012Z,826.04
2019-03-04T05:20:38.281Z,826.07
2019-03-04T05:21:35.595Z,826.03
2019-03-04T05:22:35.544Z,826.03
2019-03-04T05:23:35.544Z,825.98
2019-03-04T05:24:35.572Z,826.00
2019-03-04T05:25:35.661Z,825.99
2019-03-04T05:26:35.489Z,825.93
2019-03-04T05:27:35.799Z,825.87
2019-03-04T05:28:35.519Z,825.91
2019-03-04T05:29:35.466Z,825.81
2019-03-04T05:30:37.824Z,825.84
2019-03-04T05:31:35.521Z,825.79
2019-03-04T05:32:35.488Z,825.77
2019-03-04T05:33:35.471Z,825.77
2019-03-04T05:34:38.364Z,825.77
2019-03-04T05:35:40.954Z,825.77
2019-03-04T05:36:36.794Z,825.73
2019-03-04T05:37:35.454Z,825.73
2019-03-04T05:38:37.521Z,825.66
2019-03-04T05:39:41.231Z,825.65
2019-03-04T05:40:38.447Z,825.61
2019-03-04T05:41:35.702Z,825.61
2019-03-04T05:42:35.593Z,825.48
2019-03-04T05:43:35.310Z,825.55
2019-03-04T05:44:35.302Z,825.54
2019-03-04T05:45:35.563Z,825.49
2019-03-04T05:46:35.550Z,825.52
2019-03-04T05:47:36.503Z,825.45
2019-03-04T05:48:35.365Z,825.47
2019-03-04T05:49:35.589Z,825.45
2019-03-04T05:50:35.350Z,825.44
2019-03-04T05:51:35.382Z,825.39
2019-03-04T05:52:35.334Z,825.43
2019-03-04T05:53:40.694Z,825.49
2019-03-04T05:54:36.441Z,825.47
2019-03-04T05:55:35.463Z,825.49
2019-03-04T05:56:35.482Z,825.44
2019-03-04T05:57:35.292Z,825.52
2019-03-04T05:58:35.291Z,825.44
2019-03-04T05:59:35.645Z,825.39
2019-03-04T06:00:35.181Z,825.33
2019-03-04T06:01:42.532Z,825.31
2019-03-04T06:02:37.362Z,825.36
2019-03-04T06:03:35.984Z,825.32
2019-03-04T06:04:37.702Z,825.25
2019-03-04T06:05:37.271Z,825.25
2019-03-04T06:06:39.321Z,825.27
2019-03-04T06:07:35.120Z,825.21
2019-03-04T06:08:36.682Z,825.16
2019-03-04T06:09:39.792Z,825.16
2019-03-04T06:10:38.633Z,825.19
2019-03-04T06:11:38.875Z,825.12
2019-03-04T06:12:35.052Z,825.10
2019-03-04T06:13:34.971Z,825.09
2019-03-04T06:14:36.341Z,825.10
2019-03-04T06:15:38.811Z,825.16
2019-03-04T06:16:34.949Z,825.09
2019-03-04T06:17:34.941Z,825.05
2019-03-04T06:18:41.592Z,825.06
2019-03-04T06:19:35.926Z,825.11
2019-03-04T06:20:39.394Z,825.05
2019-03-04T06:21:40.273Z,825.10
2019-03-04T06:22:37.374Z,825.16
2019-03-04T06:23:40.292Z,825.12
2019-03-04T06:24:36.552Z,825.13
2019-03-04T06:25:36.575Z,825.11
2019-03-04T06:26:41.225Z,825.08
2019-03-04T06:27:35.873Z,825.08
2019-03-04T06:28:36.603Z,825.09
2019-03-04T06:29:39.703Z,825.07
2019-03-04T06:30:37.014Z,825.06
2019-03-04T06:31:35.614Z,825.01
2019-03-04T06:32:42.481Z,824.97
2019-03-04T06:33:35.758Z,824.95
2019-03-04T06:34:34.844Z,824.99
2019-03-04T06:35:40.706Z,824.94
2019-03-04T06:36:35.802Z,824.95
2019-03-04T06:37:37.523Z,824.95
2019-03-04T06:38:38.325Z,824.94
2019-03-04T06:39:34.691Z,824.94
2019-03-04T06:40:37.503Z,824.98
2019-03-04T06:41:39.953Z,824.85
2019-03-04T06:42:35.774Z,824.87
2019-03-04T06:43:36.921Z,824.93
2019-03-04T06:44:37.311Z,824.93
2019-03-04T06:45:39.053Z,824.93
2019-03-04T06:46:35.063Z,824.92
2019-03-04T06:47:35.164Z,824.83
2019-03-04T06:48:37.334Z,824.80
2019-03-04T06:49:35.044Z,824.84
2019-03-04T06:50:38.682Z,824.81
2019-03-04T06:51:39.781Z,824.84
2019-03-04T06:52:35.555Z,824.79
2019-03-04T06:53:34.750Z,824.68
2019-03-04T06:54:38.044Z,824.69
2019-03-04T06:55:34.551Z,824.64
2019-03-04T06:56:35.375Z,824.59
2019-03-04T06:57:38.093Z,824.61
2019-03-04T06:58:39.533Z,824.55
2019-03-04T06:59:35.541Z,824.52
2019-03-04T07:00:37.183Z,824.59
2019-03-04T07:01:34.974Z,824.47
2019-03-04T07:02:38.413Z,824.39
2019-03-04T07:03:35.183Z,824.41
2019-03-04T07:04:38.866Z,824.49
2019-03-04T07:05:35.608Z,824.47
2019-03-04T07:06:39.763Z,824.42
2019-03-04T07:07:36.573Z,824.44
2019-03-04T07:08:34.402Z,824.42
2019-03-04T07:09:36.143Z,824.54
2019-03-04T07:10:37.662Z,824.57
2019-03-04T07:11:34.865Z,824.61
2019-03-04T07:12:36.053Z,824.51
2019-03-04T07:13:38.882Z,824.51
2019-03-04T07:14:37.445Z,824.52
2019-03-04T07:15:34.302Z,824.51
2019-03-04T07:16:34.313Z,824.54
2019-03-04T07:17:34.433Z,824.52
2019-03-04T07:18:35.121Z,824.60
2019-03-04T07:19:34.269Z,824.59
2019-03-04T07:20:38.984Z,824.62
2019-03-04T07:21:36.332Z,824.65
2019-03-04T07:22:34.633Z,824.63
2019-03-04T07:23:34.300Z,824.65
2019-03-04T07:24:36.934Z,824.59
2019-03-04T07:25:38.024Z,824.64
2019-03-04T07:26:34.461Z,824.66
2019-03-04T07:27:36.325Z,824.60
2019-03-04T07:28:39.672Z,824.60
2019-03-04T07:29:35.209Z,824.56
2019-03-04T07:30:37.423Z,824.55
2019-03-04T07:31:39.532Z,824.51
2019-03-04T07:32:35.130Z,824.45
2019-03-04T07:33:35.233Z,824.42
2019-03-04T07:34:34.581Z,824.52
2019-03-04T07:35:37.804Z,824.60
2019-03-04T07:36:34.072Z,824.53
2019-03-04T07:37:34.271Z,824.53
2019-03-04T07:38:35.373Z,824.42
2019-03-04T07:39:37.293Z,824.45
2019-03-04T07:40:35.583Z,824.49
2019-03-04T07:41:34.684Z,824.52
2019-03-04T07:42:38.172Z,824.50
2019-03-04T07:43:34.441Z,824.52
2019-03-04T07:44:36.032Z,824.47
2019-03-04T07:45:39.254Z,824.57
2019-03-04T07:46:35.062Z,824.55
2019-03-04T07:47:35.086Z,824.56
2019-03-04T07:48:36.415Z,824.64
2019-03-04T07:49:33.980Z,824.51
2019-03-04T07:50:36.720Z,824.54
2019-03-04T07:51:37.821Z,824.51
2019-03-04T07:52:38.562Z,824.48
2019-03-04T07:53:35.083Z,824.46
2019-03-04T07:54:33.891Z,824.48
2019-03-04T07:55:37.934Z,824.50
2019-03-04T07:56:33.961Z,824.54
2019-03-04T07:57:35.796Z,824.50
2019-03-04T07:58:35.493Z,824.44
2019-03-04T07:59:34.123Z,824.48
2019-03-04T08:00:37.301Z,824.46
2019-03-04T08:01:35.482Z,824.41
2019-03-04T08:02:38.383Z,824.41
2019-03-04T08:03:34.653Z,824.45
2019-03-04T08:04:35.582Z,824.47
2019-03-04T08:05:34.574Z,824.44
2019-03-04T08:06:37.012Z,824.44
2019-03-04T08:07:34.441Z,824.42
2019-03-04T08:08:39.011Z,824.48
2019-03-04T08:09:34.852Z,824.42
2019-03-04T08:10:37.363Z,824.42
2019-03-04T08:11:35.393Z,824.38
2019-03-04T08:12:35.924Z,824.30
2019-03-04T08:13:33.923Z,824.34
2019-03-04T08:14:33.682Z,824.35
2019-03-04T08:15:33.832Z,824.37
2019-03-04T08:16:36.023Z,824.27
2019-03-04T08:17:38.874Z,824.25
2019-03-04T08:18:34.615Z,824.26
2019-03-04T08:19:36.205Z,824.23
2019-03-04T08:20:36.823Z,824.27
2019-03-04T08:21:36.353Z,824.21
2019-03-04T08:22:35.093Z,824.23
2019-03-04T08:23:37.274Z,824.26
2019-03-04T08:24:33.883Z,824.29
2019-03-04T08:25:35.866Z,824.17
2019-03-04T08:26:33.891Z,824.24
2019-03-04T08:27:33.771Z,824.23
2019-03-04T08:28:37.723Z,824.38
2019-03-04T08:29:34.091Z,824.34
2019-03-04T08:30:36.154Z,824.34
2019-03-04T08:31:35.204Z,824.25
2019-03-04T08:32:33.874Z,824.22
2019-03-04T08:33:36.423Z,824.18
2019-03-04T08:34:33.729Z,824.27
2019-03-04T08:35:33.883Z,824.33
2019-03-04T08:36:36.061Z,824.32
2019-03-04T08:37:37.811Z,824.24
2019-03-04T08:38:38.507Z,824.36
2019-03-04T08:39:38.193Z,824.39
2019-03-04T08:40:39.956Z,824.37
2019-03-04T08:41:37.280Z,824.38
2019-03-04T08:42:35.364Z,824.31
2019-03-04T08:43:40.012Z,824.37
2019-03-04T08:44:34.340Z,824.34
2019-03-04T08:45:34.492Z,824.41
2019-03-04T08:46:38.262Z,824.37
2019-03-04T08:47:33.461Z,824.32
2019-03-04T08:48:33.299Z,824.28
2019-03-04T08:49:36.641Z,824.24
2019-03-04T08:50:35.174Z,824.28
2019-03-04T08:51:33.396Z,824.26
2019-03-04T08:52:35.463Z,824.29
2019-03-04T08:53:37.064Z,824.27
2019-03-04T08:54:34.343Z,824.28
2019-03-04T08:55:34.554Z,824.30
2019-03-04T08:56:35.571Z,824.20
2019-03-04T08:57:33.911Z,824.16
2019-03-04T08:58:34.713Z,824.16
2019-03-04T08:59:33.163Z,824.13
2019-03-04T09:00:38.745Z,824.01
2019-03-04T09:01:35.654Z,824.03
2019-03-04T09:02:38.612Z,824.03
2019-03-04T09:03:34.192Z,824.02
2019-03-04T09:04:33.475Z,823.93
2019-03-04T09:05:38.256Z,823.81
2019-03-04T09:06:34.776Z,823.77
2019-03-04T09:07:33.944Z,823.76
2019-03-04T09:08:33.142Z,823.77
2019-03-04T09:09:35.815Z,823.78
2019-03-04T09:10:34.933Z,823.79
2019-03-04T09:11:33.124Z,823.81
2019-03-04T09:12:36.068Z,823.92
2019-03-04T09:13:33.791Z,823.89
2019-03-04T09:14:33.032Z,823.93
2019-03-04T09:15:33.807Z,823.84
2019-03-04T09:16:37.454Z,823.93
2019-03-04T09:17:32.961Z,823.96
2019-03-04T09:18:33.854Z,823.91
2019-03-04T09:19:34.084Z,823.82
2019-03-04T09:20:37.093Z,823.80
2019-03-04T09:21:33.384Z,823.76
2019-03-04T09:22:37.525Z,823.77
2019-03-04T09:23:33.003Z,823.70
2019-03-04T09:24:33.332Z,823.65
2019-03-04T09:25:34.267Z,823.58
2019-03-04T09:26:38.823Z,823.49
2019-03-04T09:27:34.517Z,823.49
2019-03-04T09:28:32.911Z,823.44
2019-03-04T09:29:35.993Z,823.47
2019-03-04T09:30:34.211Z,823.49
2019-03-04T09:31:33.124Z,823.55
2019-03-04T09:32:33.081Z,823.53
2019-03-04T09:33:33.921Z,823.66
2019-03-04T09:34:35.670Z,823.54
2019-03-04T09:35:32.902Z,823.54
2019-03-04T09:36:32.911Z,823.57
2019-03-04T09:37:33.024Z,823.60
2019-03-04T09:38:33.755Z,823.61
2019-03-04T09:39:34.291Z,823.67
2019-03-04T09:40:34.113Z,823.56
2019-03-04T09:41:32.728Z,823.63
2019-03-04T09:42:32.769Z,823.56
2019-03-04T09:43:33.495Z,823.54
2019-03-04T09:44:34.432Z,823.49
2019-03-04T09:45:38.931Z,823.52
2019-03-04T09:46:33.863Z,823.46
2019-03-04T09:47:32.669Z,823.49
2019-03-04T09:48:32.619Z,823.41
2019-03-04T09:49:33.103Z,823.42
2019-03-04T09:50:37.041Z,823.39
2019-03-04T09:51:32.702Z,823.43
2019-03-04T09:52:33.015Z,823.47
2019-03-04T09:53:39.353Z,823.49
2019-03-04T09:54:34.444Z,823.41
2019-03-04T09:55:36.596Z,823.42
2019-03-04T09:56:32.541Z,823.43
2019-03-04T09:57:32.642Z,823.48
2019-03-04T09:58:32.609Z,823.53
2019-03-04T09:59:32.943Z,823.53
2019-03-04T10:00:38.114Z,823.47
2019-03-04T10:01:41.081Z,823.46
2019-03-04T10:02:41.892Z,823.43
2019-03-04T10:03:34.126Z,823.38
2019-03-04T10:04:36.183Z,823.34
2019-03-04T10:05:38.703Z,823.32
2019-03-04T10:06:33.563Z,823.33
2019-03-04T10:07:32.754Z,823.35
2019-03-04T10:08:35.752Z,823.30
2019-03-04T10:09:39.692Z,823.28
2019-03-04T10:10:45.543Z,823.26
2019-03-04T10:11:35.054Z,823.27
2019-03-04T10:12:35.774Z,823.21
2019-03-04T10:13:36.856Z,823.20
2019-03-04T10:14:44.192Z,823.20
2019-03-04T10:15:40.124Z,823.14
2019-03-04T10:16:40.393Z,823.24
2019-03-04T10:17:34.053Z,823.19
2019-03-04T10:18:37.972Z,823.09
2019-03-04T10:19:34.905Z,822.98
2019-03-04T10:20:38.036Z,822.98
2019-03-04T10:21:36.893Z,822.98
2019-03-04T10:22:36.122Z,823.08
2019-03-04T10:23:41.963Z,823.08
2019-03-04T10:24:43.333Z,823.05
2019-03-04T10:25:37.076Z,823.12
2019-03-04T10:26:35.174Z,823.16
2019-03-04T10:27:35.051Z,823.17
2019-03-04T10:28:34.392Z,823.18
2019-03-04T10:29:37.534Z,823.22
2019-03-04T10:30:35.203Z,823.21
2019-03-04T10:31:42.323Z,823.15
2019-03-04T10:32:39.862Z,823.12
2019-03-04T10:33:37.502Z,823.13
2019-03-04T10:34:34.299Z,823.21
2019-03-04T10:35:35.257Z,823.11
2019-03-04T10:36:41.932Z,823.20
2019-03-04T10:37:41.992Z,823.05
2019-03-04T10:38:34.054Z,823.02
2019-03-04T10:39:36.964Z,822.97
2019-03-04T10:40:36.134Z,823.01
2019-03-04T10:41:40.993Z,823.06
2019-03-04T10:42:35.244Z,823.01
2019-03-04T10:43:34.741Z,822.98
2019-03-04T10:44:39.522Z,822.95
2019-03-04T10:45:41.944Z,823.04
2019-03-04T10:46:37.883Z,823.08
2019-03-04T10:47:36.264Z,823.06
2019-03-04T10:48:35.464Z,822.92
2019-03-04T10:49:37.435Z,822.94
2019-03-04T10:50:40.434Z,822.91
2019-03-04T10:51:40.392Z,822.92
2019-03-04T10:52:36.053Z,822.97
2019-03-04T10:53:35.682Z,822.99
2019-03-04T10:54:32.431Z,823.02
2019-03-04T10:55:44.491Z,822.99
2019-03-04T10:56:34.292Z,822.97
2019-03-04T10:57:37.602Z,823.00
2019-03-04T10:58:33.473Z,823.02
2019-03-04T10:59:44.243Z,823.00
2019-03-04T11:00:38.722Z,822.92
2019-03-04T11:01:41.102Z,822.97
2019-03-04T11:02:40.144Z,822.87
2019-03-04T11:03:32.862Z,822.99
2019-03-04T11:04:37.190Z,822.91
2019-03-04T11:05:40.332Z,822.84
2019-03-04T11:06:34.056Z,822.84
2019-03-04T11:07:33.983Z,822.80
2019-03-04T11:08:39.434Z,822.75
2019-03-04T11:09:40.422Z,822.70
2019-03-04T11:10:39.612Z,822.69
2019-03-04T11:11:42.201Z,822.61
2019-03-04T11:12:36.030Z,822.66
2019-03-04T11:13:41.952Z,822.68
2019-03-04T11:14:39.162Z,822.67
2019-03-04T11:15:40.731Z,822.59
2019-03-04T11:16:33.352Z,822.54
2019-03-04T11:17:34.863Z,822.65
2019-03-04T11:18:44.050Z,822.56
2019-03-04T11:19:35.619Z,822.55
2019-03-04T11:20:39.712Z,822.51
2019-03-04T11:21:37.269Z,822.50
2019-03-04T11:22:37.482Z,822.48
2019-03-04T11:23:43.132Z,822.47
2019-03-04T11:24:35.082Z,822.44
2019-03-04T11:25:31.840Z,822.51
2019-03-04T11:26:40.583Z,822.50
2019-03-04T11:27:32.961Z,822.53
2019-03-04T11:28:31.571Z,822.48
2019-03-04T11:29:32.632Z,822.49
2019-03-04T11:30:35.140Z,822.42
2019-03-04T11:31:35.292Z,822.46
2019-03-04T11:32:31.508Z,822.52
2019-03-04T11:33:38.197Z,822.48
2019-03-04T11:34:33.811Z,822.56
2019-03-04T11:35:40.095Z,822.49
2019-03-04T11:36:33.512Z,822.38
2019-03-04T11:37:33.294Z,822.46
2019-03-04T11:38:32.821Z,822.39
2019-03-04T11:39:40.182Z,822.44
2019-03-04T11:40:35.054Z,822.37
2019-03-04T11:41:32.630Z,822.42
2019-03-04T11:42:38.911Z,822.38
2019-03-04T11:43:32.490Z,822.36
2019-03-04T11:44:31.971Z,822.39
2019-03-04T11:45:36.362Z,822.38
2019-03-04T11:46:32.309Z,822.36
2019-03-04T11:47:34.594Z,822.37
2019-03-04T11:48:33.281Z,822.42
2019-03-04T11:49:32.250Z,822.35
2019-03-04T11:50:35.502Z,822.30
2019-03-04T11:51:35.462Z,822.35
2019-03-04T11:52:31.490Z,822.36
2019-03-04T11:53:32.360Z,822.34
2019-03-04T11:54:37.963Z,822.17
2019-03-04T11:55:33.230Z,822.15
2019-03-04T11:56:31.608Z,822.25
2019-03-04T11:57:32.221Z,822.42
2019-03-04T11:58:39.650Z,822.32
2019-03-04T11:59:32.571Z,822.15
2019-03-04T12:00:36.091Z,822.24
2019-03-04T12:01:42.961Z,822.25
2019-03-04T12:02:38.990Z,822.11
2019-03-04T12:03:36.848Z,822.12
2019-03-04T12:04:34.900Z,822.21
2019-03-04T12:05:31.990Z,822.20
2019-03-04T12:06:31.472Z,822.17
2019-03-04T12:07:31.332Z,822.23
2019-03-04T12:08:31.511Z,822.20
2019-03-04T12:09:37.883Z,822.25
2019-03-04T12:10:39.785Z,822.20
2019-03-04T12:11:38.393Z,822.25
2019-03-04T12:12:37.359Z,822.18
2019-03-04T12:13:33.911Z,822.16
2019-03-04T12:14:33.601Z,822.14
2019-03-04T12:15:43.822Z,822.17
2019-03-04T12:16:32.335Z,822.16
2019-03-04T12:17:32.972Z,822.11
2019-03-04T12:18:39.360Z,822.22
2019-03-04T12:19:34.239Z,822.17
2019-03-04T12:20:32.589Z,822.18
2019-03-04T12:21:33.839Z,822.09
2019-03-04T12:22:36.435Z,822.14
2019-03-04T12:23:31.927Z,822.13
2019-03-04T12:24:34.720Z,822.21
2019-03-04T12:25:33.778Z,822.07
2019-03-04T12:26:32.816Z,822.11
2019-03-04T12:27:40.089Z,822.19
2019-03-04T12:28:31.937Z,822.23